Tuskahoma, Oklahoma
Current Conditions -  °F | °C
As of 4:53 AM on Friday 19 Dec 2014 (Local Time) from KMLC Reporting Station
Overcast Overcast  
Wind Chill:   Ceiling: 1100
Heat Index:   Visibility: 8mi
Dew Point:   Wind: 3mph
Humidity: 92%   Direction: 50°NE
Pressure: 30.19"   Gusts: NA
Location:  34.62°N, 95.28°W
Report Text: KMLC 191053Z AUTO 05003KT 8SM BKN011 OVC017 06/04 A3019 RMK AO2 SLP223 T00560044
Loading
Personal Weather Stations






























Interactive Weather Map New forecast layout! Learn more

10-Day Weather Forecast

Advertisements
Track Severe Weather on mobile